createdAt,value
2019-02-15T00:02:57.996Z,13.90
2019-02-15T00:07:53.755Z,14.07
2019-02-15T00:12:49.481Z,13.80
2019-02-15T00:18:10.347Z,14.77
2019-02-15T00:23:06.115Z,13.10
2019-02-15T00:28:01.732Z,14.80
2019-02-15T00:32:57.516Z,13.10
2019-02-15T00:37:53.453Z,13.53
2019-02-15T00:42:49.349Z,11.43
2019-02-15T00:47:49.834Z,10.67
2019-02-15T00:53:10.693Z,10.80
2019-02-15T00:58:28.260Z,10.60
2019-02-15T01:03:35.113Z,11.00
2019-02-15T01:08:55.013Z,10.93
2019-02-15T01:13:50.888Z,10.90
2019-02-15T01:18:46.616Z,10.73
2019-02-15T01:23:42.264Z,9.63
2019-02-15T01:28:45.848Z,10.07
2019-02-15T01:33:55.531Z,8.57
2019-02-15T01:39:04.090Z,8.50
2019-02-15T01:44:16.328Z,8.67
2019-02-15T01:49:11.984Z,8.90
2019-02-15T01:54:07.848Z,8.50
2019-02-15T01:59:03.583Z,10.03
2019-02-15T02:03:59.619Z,11.43
2019-02-15T02:08:55.272Z,9.63
2019-02-15T02:13:55.880Z,8.77
2019-02-15T02:18:51.638Z,7.90
2019-02-15T02:23:47.330Z,8.00
2019-02-15T02:28:43.070Z,8.30
2019-02-15T02:33:38.730Z,8.27
2019-02-15T02:38:34.442Z,9.30
2019-02-15T02:43:31.497Z,9.90
2019-02-15T02:48:27.627Z,9.07
2019-02-15T02:53:23.535Z,8.80
2019-02-15T02:58:19.281Z,9.20
2019-02-15T03:03:15.361Z,9.20
2019-02-15T03:08:11.215Z,8.17
2019-02-15T03:13:08.664Z,8.43
2019-02-15T03:18:04.453Z,8.80
2019-02-15T03:23:00.340Z,8.43
2019-02-15T03:27:56.085Z,8.57
2019-02-15T03:32:51.808Z,8.13
2019-02-15T03:38:01.471Z,8.60
2019-02-15T03:42:57.151Z,10.87
2019-02-15T03:47:52.981Z,9.10
2019-02-15T03:52:48.883Z,8.40
2019-02-15T03:57:44.796Z,8.97
2019-02-15T04:02:40.813Z,8.63
2019-02-15T04:07:36.578Z,8.63
2019-02-15T04:12:33.331Z,9.00
2019-02-15T04:17:29.289Z,7.93
2019-02-15T04:22:25.041Z,8.40
2019-02-15T04:27:23.984Z,7.77
2019-02-15T04:32:20.752Z,8.07
2019-02-15T04:37:16.475Z,8.83
2019-02-15T04:42:12.300Z,7.93
2019-02-15T04:47:08.010Z,8.13
2019-02-15T04:52:04.004Z,8.13
2019-02-15T04:56:59.791Z,7.63
2019-02-15T05:01:56.706Z,7.00
2019-02-15T05:06:52.544Z,8.37
2019-02-15T05:11:48.719Z,7.63
2019-02-15T05:16:45.620Z,7.37
2019-02-15T05:21:41.273Z,7.93
2019-02-15T05:26:37.019Z,7.20
2019-02-15T05:31:32.680Z,8.50
2019-02-15T05:36:28.398Z,8.00
2019-02-15T05:41:24.121Z,7.23
2019-02-15T05:46:19.883Z,8.10
2019-02-15T05:51:15.541Z,9.53
2019-02-15T05:56:11.303Z,13.23
2019-02-15T06:01:07.792Z,11.57
2019-02-15T06:06:03.706Z,13.23
2019-02-15T06:11:07.285Z,9.37
2019-02-15T06:15:58.013Z,10.60
2019-02-15T06:20:53.773Z,13.50
2019-02-15T06:25:49.611Z,10.23
2019-02-15T06:30:45.288Z,9.70
2019-02-15T06:35:41.184Z,10.97
2019-02-15T06:40:37.012Z,8.97
2019-02-15T06:45:33.821Z,9.53
2019-02-15T06:50:29.572Z,10.90
2019-02-15T06:55:25.450Z,10.03
2019-02-15T07:00:49.167Z,9.50
2019-02-15T07:05:44.982Z,8.93
2019-02-15T07:10:40.770Z,8.90
2019-02-15T07:15:36.649Z,9.40
2019-02-15T07:20:32.333Z,9.30
2019-02-15T07:25:28.250Z,9.47
2019-02-15T07:30:24.016Z,9.90
2019-02-15T07:35:19.899Z,9.87
2019-02-15T07:40:15.627Z,17.93
2019-02-15T07:45:11.622Z,9.93
2019-02-15T07:50:09.641Z,10.17
2019-02-15T07:55:06.164Z,9.23
2019-02-15T08:00:01.896Z,9.20
2019-02-15T08:04:58.829Z,8.93
2019-02-15T08:09:54.525Z,8.13
2019-02-15T08:14:51.393Z,7.27
2019-02-15T08:19:47.175Z,7.17
2019-02-15T08:24:42.904Z,7.17
2019-02-15T08:29:38.537Z,6.97
2019-02-15T08:34:34.442Z,7.10
2019-02-15T08:39:30.102Z,7.87
2019-02-15T08:44:26.897Z,8.73
2019-02-15T08:49:22.592Z,8.00
2019-02-15T08:54:20.068Z,7.40
2019-02-15T08:59:15.823Z,7.77
2019-02-15T09:04:11.908Z,7.40
2019-02-15T09:09:07.775Z,5.73
2019-02-15T09:14:03.664Z,5.70
2019-02-15T09:18:59.401Z,5.37
2019-02-15T09:23:55.149Z,4.53
2019-02-15T09:29:09.767Z,4.80
2019-02-15T09:34:08.386Z,4.77
2019-02-15T09:39:05.772Z,4.60
2019-02-15T09:44:01.521Z,4.27
2019-02-15T09:48:57.223Z,4.20
2019-02-15T09:53:53.074Z,4.03
2019-02-15T09:58:48.951Z,4.00
2019-02-15T10:03:46.657Z,3.20
2019-02-15T10:08:42.338Z,2.80
2019-02-15T10:13:38.268Z,3.53
2019-02-15T10:18:34.085Z,3.80
2019-02-15T10:23:30.955Z,3.50
2019-02-15T10:28:26.807Z,3.07
2019-02-15T10:33:22.764Z,3.13
2019-02-15T10:38:18.681Z,3.20
2019-02-15T10:43:14.551Z,3.10
2019-02-15T10:48:11.411Z,3.77
2019-02-15T10:53:07.188Z,3.13
2019-02-15T10:58:05.446Z,3.33
2019-02-15T11:03:01.149Z,3.30
2019-02-15T11:07:56.915Z,3.50
2019-02-15T11:12:52.719Z,5.03
2019-02-15T11:17:48.490Z,4.20
2019-02-15T11:22:44.182Z,3.40
2019-02-15T11:27:40.082Z,3.20
2019-02-15T11:32:36.014Z,2.90
2019-02-15T11:37:31.745Z,3.50
2019-02-15T11:42:27.501Z,3.50
2019-02-15T11:47:25.387Z,3.93
2019-02-15T11:52:22.131Z,3.60
2019-02-15T11:57:18.104Z,3.87
2019-02-15T12:02:13.913Z,4.43
2019-02-15T12:07:09.754Z,3.60
2019-02-15T12:12:10.783Z,4.13
2019-02-15T12:17:05.994Z,4.37
2019-02-15T12:22:01.852Z,4.23
2019-02-15T12:26:57.594Z,3.63
2019-02-15T12:31:53.330Z,4.20
2019-02-15T12:36:49.112Z,3.50
2019-02-15T12:41:44.850Z,3.97
2019-02-15T12:46:40.900Z,3.60
2019-02-15T12:51:38.597Z,4.30
2019-02-15T12:56:35.536Z,4.20
2019-02-15T13:01:31.332Z,4.27
2019-02-15T13:06:30.745Z,3.93
2019-02-15T13:11:28.047Z,4.30
2019-02-15T13:16:23.876Z,4.57
2019-02-15T13:21:22.719Z,4.97
2019-02-15T13:26:42.736Z,4.67
2019-02-15T13:37:26.950Z,4.60
2019-02-15T13:42:23.563Z,4.77
2019-02-15T13:47:34.625Z,4.50
2019-02-15T13:52:40.904Z,4.93
2019-02-15T13:58:00.051Z,5.33
2019-02-15T14:02:57.690Z,5.40
2019-02-15T14:08:02.347Z,5.63
2019-02-15T14:13:27.801Z,5.70
2019-02-15T14:18:43.585Z,6.20
2019-02-15T14:24:13.064Z,5.97
2019-02-15T14:29:16.751Z,6.20
2019-02-15T14:34:24.616Z,5.70
2019-02-15T14:39:36.696Z,5.70
2019-02-15T14:44:46.039Z,5.67
2019-02-15T14:49:43.933Z,6.07
2019-02-15T14:54:41.736Z,5.40
2019-02-15T14:59:39.047Z,5.30
2019-02-15T15:04:38.217Z,5.63
2019-02-15T15:09:41.107Z,5.50
2019-02-15T15:14:39.626Z,5.43
2019-02-15T15:19:35.642Z,5.60
2019-02-15T15:24:32.081Z,5.20
2019-02-15T15:29:28.149Z,5.50
2019-02-15T15:34:29.518Z,5.50
2019-02-15T15:39:31.178Z,5.97
2019-02-15T15:44:27.474Z,5.47
2019-02-15T15:49:23.448Z,5.13
2019-02-15T15:54:19.437Z,5.73
2019-02-15T15:59:15.358Z,6.47
2019-02-15T16:04:11.946Z,19.93
2019-02-15T16:09:08.387Z,30.10
2019-02-15T16:14:04.320Z,31.93
2019-02-15T16:19:06.453Z,19.30
2019-02-15T16:24:12.133Z,14.27
2019-02-15T16:29:04.959Z,15.13
2019-02-15T16:34:06.830Z,14.50
2019-02-15T16:44:16.680Z,9.43
2019-02-15T16:49:12.957Z,11.37
2019-02-15T16:54:09.045Z,11.13
2019-02-15T16:59:05.360Z,15.00
2019-02-15T17:04:01.238Z,9.73
2019-02-15T17:08:59.860Z,9.80
2019-02-15T17:13:56.949Z,19.27
2019-02-15T17:18:55.844Z,14.30
2019-02-15T17:23:54.910Z,26.73
2019-02-15T17:28:51.859Z,16.37
2019-02-15T17:33:47.728Z,14.90
2019-02-15T17:38:44.623Z,13.50
2019-02-15T17:43:40.461Z,13.77
2019-02-15T17:48:40.422Z,13.83
2019-02-15T17:53:39.266Z,20.67
2019-02-15T17:58:35.268Z,14.43
2019-02-15T18:03:31.099Z,11.53
2019-02-15T18:08:26.921Z,15.43
2019-02-15T18:13:24.048Z,14.10
2019-02-15T18:18:20.837Z,14.07
2019-02-15T18:23:16.925Z,13.43
2019-02-15T18:28:14.630Z,13.00
2019-02-15T18:33:10.348Z,13.27
2019-02-15T18:38:08.358Z,12.33
2019-02-15T18:43:04.036Z,11.70
2019-02-15T18:48:01.856Z,19.03
2019-02-15T18:52:57.641Z,12.13
2019-02-15T18:57:53.390Z,12.20
2019-02-15T19:02:49.201Z,13.87
2019-02-15T19:07:45.191Z,27.83
2019-02-15T19:12:41.143Z,23.33
2019-02-15T19:17:36.964Z,17.77
2019-02-15T19:22:33.071Z,17.50
2019-02-15T19:27:29.210Z,18.63
2019-02-15T19:32:25.041Z,16.27
2019-02-15T19:37:22.253Z,19.87
2019-02-15T19:42:20.694Z,18.60
2019-02-15T19:47:16.700Z,19.07
2019-02-15T19:52:12.383Z,19.70
2019-02-15T19:57:08.544Z,21.83
2019-02-15T20:02:05.086Z,19.00
2019-02-15T20:07:03.053Z,18.27
2019-02-15T20:12:00.268Z,21.23
2019-02-15T20:16:56.235Z,32.27
2019-02-15T20:21:53.121Z,27.03
2019-02-15T20:26:50.210Z,24.50
2019-02-15T20:31:46.253Z,18.43
2019-02-15T20:36:44.415Z,18.97
2019-02-15T20:41:41.904Z,19.10
2019-02-15T20:46:37.579Z,18.47
2019-02-15T20:51:35.428Z,16.23
2019-02-15T20:56:31.635Z,17.63
2019-02-15T21:01:27.357Z,17.00
2019-02-15T21:06:23.231Z,18.03
2019-02-15T21:11:22.486Z,16.87
2019-02-15T21:16:18.278Z,17.77
2019-02-15T21:21:14.037Z,16.80
2019-02-15T21:26:12.740Z,14.53
2019-02-15T21:31:08.489Z,15.60
2019-02-15T21:36:04.627Z,15.87
2019-02-15T21:41:00.314Z,23.20
2019-02-15T21:45:55.961Z,23.03
2019-02-15T21:50:51.799Z,22.37
2019-02-15T21:55:47.681Z,21.77
2019-02-15T22:00:44.522Z,23.10
2019-02-15T22:05:40.428Z,20.70
2019-02-15T22:10:36.090Z,19.00
2019-02-15T22:15:32.004Z,19.57
2019-02-15T22:20:27.882Z,17.50
2019-02-15T22:25:23.695Z,15.00
2019-02-15T22:30:19.900Z,14.07
2019-02-15T22:35:15.875Z,14.30
2019-02-15T22:40:30.046Z,14.30
2019-02-15T22:45:25.924Z,14.93
2019-02-15T22:50:22.995Z,13.73
2019-02-15T22:55:21.117Z,14.30
2019-02-15T23:00:33.007Z,14.70
2019-02-15T23:05:30.346Z,15.37
2019-02-15T23:10:26.052Z,16.10
2019-02-15T23:15:22.766Z,14.10
2019-02-15T23:20:18.436Z,15.20
2019-02-15T23:25:14.278Z,14.33
2019-02-15T23:30:10.121Z,14.33
2019-02-15T23:35:06.112Z,15.77
2019-02-15T23:40:01.879Z,15.37
2019-02-15T23:44:57.617Z,15.67
2019-02-15T23:49:53.274Z,14.53
2019-02-15T23:54:49.079Z,13.70
2019-02-15T23:59:44.804Z,15.17
